createdAt,value
2022-09-28T00:00:24.227Z,93.07
2022-09-28T00:05:27.136Z,92.74
2022-09-28T00:10:29.805Z,93.30
2022-09-28T00:15:32.317Z,93.02
2022-09-28T00:20:34.877Z,93.90
2022-09-28T00:25:37.826Z,93.32
2022-09-28T00:30:40.385Z,93.10
2022-09-28T00:35:43.695Z,93.69
2022-09-28T00:40:46.331Z,94.88
2022-09-28T00:46:06.868Z,96.30
2022-09-28T00:51:12.638Z,97.14
2022-09-28T00:56:19.694Z,97.59
2022-09-28T01:01:23.282Z,99.06
2022-09-28T01:06:34.175Z,98.60
2022-09-28T01:11:38.864Z,99.42
2022-09-28T01:17:01.326Z,100.00
2022-09-28T01:22:34.217Z,100.00
2022-09-28T01:27:44.916Z,100.00
2022-09-28T01:32:54.762Z,100.00
2022-09-28T01:38:06.173Z,100.00
2022-09-28T01:43:18.076Z,100.00
2022-09-28T01:48:29.421Z,100.00
2022-09-28T01:53:46.981Z,100.00
2022-09-28T01:59:04.200Z,100.00
2022-09-28T02:04:21.887Z,100.00
2022-09-28T02:09:40.648Z,100.00
2022-09-28T02:14:47.294Z,100.00
2022-09-28T02:19:50.112Z,100.00
2022-09-28T02:25:03.537Z,100.00
2022-09-28T02:30:07.858Z,100.00
2022-09-28T02:35:16.833Z,100.00
2022-09-28T02:40:23.868Z,100.00
2022-09-28T02:45:36.255Z,100.00
2022-09-28T02:51:07.963Z,100.00
2022-09-28T02:56:39.310Z,100.00
2022-09-28T03:02:12.199Z,100.00
2022-09-28T03:07:31.342Z,100.00
2022-09-28T03:12:36.170Z,100.00
2022-09-28T03:17:38.737Z,100.00
2022-09-28T03:22:41.615Z,100.00
2022-09-28T03:27:45.218Z,100.00
2022-09-28T03:32:58.433Z,100.00
2022-09-28T03:38:02.556Z,100.00
2022-09-28T03:43:07.900Z,100.00
2022-09-28T03:48:10.611Z,100.00
2022-09-28T03:53:13.264Z,100.00
2022-09-28T03:58:16.109Z,100.00
2022-09-28T04:03:18.697Z,100.00
2022-09-28T04:08:21.354Z,100.00
2022-09-28T04:13:25.324Z,100.00
2022-09-28T04:18:28.215Z,100.00
2022-09-28T04:23:51.839Z,100.00
2022-09-28T04:29:13.074Z,100.00
2022-09-28T04:34:20.269Z,100.00
2022-09-28T04:39:22.924Z,100.00
2022-09-28T04:44:28.793Z,100.00
2022-09-28T04:49:38.723Z,100.00
2022-09-28T04:54:47.346Z,100.00
2022-09-28T04:59:49.943Z,100.00
2022-09-28T05:04:55.431Z,100.00
2022-09-28T05:10:13.721Z,100.00
2022-09-28T05:15:16.774Z,100.00
2022-09-28T05:20:19.626Z,100.00
2022-09-28T05:25:24.162Z,100.00
2022-09-28T05:30:47.164Z,100.00
2022-09-28T05:36:14.448Z,100.00
2022-09-28T05:41:18.404Z,100.00
2022-09-28T05:46:22.660Z,100.00
2022-09-28T05:51:26.420Z,100.00
2022-09-28T05:56:31.003Z,100.00
2022-09-28T06:01:33.868Z,100.00
2022-09-28T06:06:38.890Z,100.00
2022-09-28T06:11:41.502Z,100.00
2022-09-28T06:16:53.665Z,100.00
2022-09-28T06:21:59.156Z,100.00
2022-09-28T06:27:02.138Z,100.00
2022-09-28T06:32:05.044Z,100.00
2022-09-28T06:37:07.995Z,100.00
2022-09-28T06:42:11.793Z,100.00
2022-09-28T06:47:35.325Z,100.00
2022-09-28T06:52:57.408Z,100.00
2022-09-28T06:58:17.381Z,100.00
2022-09-28T07:03:22.093Z,100.00
2022-09-28T07:08:36.629Z,100.00
2022-09-28T07:13:57.821Z,100.00
2022-09-28T07:19:00.575Z,100.00
2022-09-28T07:24:03.177Z,100.00
2022-09-28T07:29:31.559Z,100.00
2022-09-28T07:34:58.748Z,100.00
2022-09-28T07:40:41.692Z,100.00
2022-09-28T07:45:52.718Z,100.00
2022-09-28T07:50:57.398Z,100.00
2022-09-28T07:56:24.186Z,99.73
2022-09-28T08:01:45.359Z,99.32
2022-09-28T08:06:49.813Z,98.54
2022-09-28T08:11:54.968Z,98.13
2022-09-28T08:17:16.722Z,97.60
2022-09-28T08:22:22.730Z,97.19
2022-09-28T08:27:27.778Z,96.91
2022-09-28T08:32:31.256Z,96.42
2022-09-28T08:37:55.607Z,96.08
2022-09-28T08:43:40.484Z,95.52
2022-09-28T08:49:26.853Z,94.53
2022-09-28T08:54:57.861Z,94.67
2022-09-28T09:00:19.429Z,94.08
2022-09-28T09:05:39.641Z,93.70
2022-09-28T09:11:02.909Z,93.09
2022-09-28T09:16:30.448Z,92.92
2022-09-28T09:21:54.709Z,91.94
2022-09-28T09:27:37.706Z,91.86
2022-09-28T09:33:24.197Z,90.94
2022-09-28T09:38:55.969Z,90.22
2022-09-28T09:44:40.897Z,89.60
2022-09-28T09:50:15.128Z,88.99
2022-09-28T09:55:30.162Z,87.65
2022-09-28T10:00:54.436Z,86.95
2022-09-28T10:06:30.375Z,86.19
2022-09-28T10:11:37.770Z,85.60
2022-09-28T10:16:45.205Z,84.59
2022-09-28T10:21:55.057Z,84.47
2022-09-28T10:27:15.631Z,83.79
2022-09-28T10:32:21.493Z,83.56
2022-09-28T10:37:25.427Z,83.22
2022-09-28T10:42:38.795Z,83.34
2022-09-28T10:47:44.858Z,82.99
2022-09-28T10:52:49.859Z,83.05
2022-09-28T10:58:36.332Z,82.66
2022-09-28T11:04:00.673Z,83.06
2022-09-28T11:09:28.417Z,82.49
2022-09-28T11:14:42.774Z,82.95
2022-09-28T11:19:56.178Z,82.88
2022-09-28T11:25:16.943Z,81.74
2022-09-28T11:30:24.792Z,82.35
2022-09-28T11:36:02.203Z,81.83
2022-09-28T11:41:32.878Z,81.92
2022-09-28T11:46:52.214Z,81.50
2022-09-28T11:52:00.004Z,81.74
2022-09-28T11:57:04.865Z,81.77
2022-09-28T12:02:22.260Z,81.50
2022-09-28T12:07:31.807Z,81.61
2022-09-28T12:12:40.335Z,82.13
2022-09-28T12:17:52.474Z,82.03
2022-09-28T12:23:09.995Z,81.62
2022-09-28T12:28:30.650Z,81.54
2022-09-28T12:33:33.392Z,81.80
2022-09-28T12:39:23.996Z,81.78
2022-09-28T12:44:58.633Z,81.92
2022-09-28T12:50:37.516Z,82.07
2022-09-28T12:55:37.551Z,82.28
2022-09-28T13:01:19.222Z,82.00
2022-09-28T13:06:56.877Z,82.21
2022-09-28T13:12:14.149Z,82.40
2022-09-28T13:17:49.490Z,82.13
2022-09-28T13:23:15.262Z,82.00
2022-09-28T13:28:26.266Z,81.41
2022-09-28T13:33:36.101Z,81.71
2022-09-28T13:38:49.883Z,81.99
2022-09-28T13:44:34.117Z,82.02
2022-09-28T13:49:56.651Z,82.10
2022-09-28T13:55:02.175Z,81.85
2022-09-28T14:00:15.954Z,81.78
2022-09-28T14:05:27.337Z,82.12
2022-09-28T14:11:21.512Z,82.38
2022-09-28T14:16:32.706Z,82.40
2022-09-28T14:21:59.294Z,82.74
2022-09-28T14:27:10.621Z,82.60
2022-09-28T14:32:13.080Z,83.04
2022-09-28T14:37:38.901Z,82.85
2022-09-28T14:43:20.793Z,83.34
2022-09-28T14:48:49.217Z,83.71
2022-09-28T14:54:00.420Z,84.01
2022-09-28T14:59:03.210Z,83.64
2022-09-28T15:04:11.800Z,83.51
2022-09-28T15:09:26.500Z,83.41
2022-09-28T15:14:32.997Z,83.63
2022-09-28T15:20:09.585Z,83.79
2022-09-28T15:25:20.147Z,84.43
2022-09-28T15:30:26.260Z,84.60
2022-09-28T15:35:28.980Z,84.72
2022-09-28T15:40:34.717Z,84.86
2022-09-28T15:45:40.054Z,85.06
2022-09-28T15:51:12.161Z,85.12
2022-09-28T15:56:14.977Z,85.55
2022-09-28T16:01:24.311Z,85.79
2022-09-28T16:06:26.969Z,85.65
2022-09-28T16:11:39.248Z,85.89
2022-09-28T16:16:46.932Z,86.08
2022-09-28T16:21:52.729Z,86.26
2022-09-28T16:27:02.712Z,86.76
2022-09-28T16:32:27.561Z,87.14
2022-09-28T16:37:32.085Z,87.44
2022-09-28T16:42:35.320Z,86.82
2022-09-28T16:47:37.892Z,87.05
2022-09-28T16:53:00.109Z,87.65
2022-09-28T16:58:04.884Z,87.75
2022-09-28T17:03:16.208Z,88.45
2022-09-28T17:08:22.291Z,88.68
2022-09-28T17:13:31.555Z,89.60
2022-09-28T17:18:37.520Z,89.25
2022-09-28T17:23:40.699Z,89.55
2022-09-28T17:28:43.351Z,89.60
2022-09-28T17:33:46.190Z,89.57
2022-09-28T17:38:49.597Z,89.74
2022-09-28T17:43:52.335Z,89.52
2022-09-28T17:48:59.555Z,89.63
2022-09-28T17:54:02.632Z,90.06
2022-09-28T17:59:17.065Z,89.66
2022-09-28T18:04:50.222Z,89.26
2022-09-28T18:09:45.027Z,89.83
2022-09-28T18:14:47.575Z,89.34
2022-09-28T18:19:51.020Z,89.46
2022-09-28T18:24:55.336Z,89.22
2022-09-28T18:29:57.867Z,89.67
2022-09-28T18:35:00.404Z,89.69
2022-09-28T18:40:03.284Z,90.22
2022-09-28T18:45:08.559Z,90.21
2022-09-28T18:50:12.971Z,90.27
2022-09-28T18:55:16.089Z,90.26
2022-09-28T19:00:18.696Z,90.58
2022-09-28T19:05:21.476Z,90.04
2022-09-28T19:10:24.021Z,90.23
2022-09-28T19:15:26.630Z,90.26
2022-09-28T19:20:29.254Z,89.64
2022-09-28T19:25:32.341Z,90.13
2022-09-28T19:30:35.212Z,89.64
2022-09-28T19:35:37.833Z,90.01
2022-09-28T19:40:40.574Z,90.31
2022-09-28T19:45:43.398Z,89.75
2022-09-28T19:50:56.426Z,90.96
2022-09-28T19:56:03.222Z,92.08
2022-09-28T20:01:06.987Z,91.93
2022-09-28T20:06:11.825Z,92.02
2022-09-28T20:11:18.674Z,92.25
2022-09-28T20:16:24.560Z,93.00
2022-09-28T20:21:28.017Z,92.86
2022-09-28T20:26:35.793Z,93.28
2022-09-28T20:31:38.516Z,92.99
2022-09-28T20:36:42.510Z,93.22
2022-09-28T20:41:46.842Z,93.14
2022-09-28T20:46:52.613Z,92.99
2022-09-28T20:51:55.163Z,92.85
2022-09-28T20:56:57.793Z,93.26
2022-09-28T21:02:00.531Z,93.23
2022-09-28T21:07:03.138Z,92.89
2022-09-28T21:12:05.932Z,92.71
2022-09-28T21:17:08.498Z,92.76
2022-09-28T21:22:11.283Z,93.11
2022-09-28T21:27:13.833Z,93.39
2022-09-28T21:32:16.475Z,93.40
2022-09-28T21:37:18.979Z,93.74
2022-09-28T21:42:21.657Z,93.76
2022-09-28T21:47:24.355Z,93.38
2022-09-28T21:52:27.106Z,93.58
2022-09-28T21:57:29.635Z,92.85
2022-09-28T22:02:33.904Z,93.93
2022-09-28T22:07:37.173Z,93.18
2022-09-28T22:12:39.846Z,93.23
2022-09-28T22:17:42.457Z,92.21
2022-09-28T22:22:51.087Z,92.41
2022-09-28T22:27:53.738Z,92.26
2022-09-28T22:32:56.397Z,92.52
2022-09-28T22:37:59.913Z,92.28
2022-09-28T22:43:02.556Z,92.32
2022-09-28T22:48:05.168Z,92.93
2022-09-28T22:53:08.101Z,93.09
2022-09-28T22:58:11.225Z,92.68
2022-09-28T23:03:14.015Z,92.35
2022-09-28T23:08:16.552Z,92.56
2022-09-28T23:13:19.497Z,92.88
2022-09-28T23:18:22.373Z,92.75
2022-09-28T23:23:25.075Z,92.85
2022-09-28T23:28:27.641Z,92.91
2022-09-28T23:33:30.217Z,93.17
2022-09-28T23:38:32.791Z,93.11
2022-09-28T23:43:36.465Z,92.86
2022-09-28T23:48:39.258Z,93.22
2022-09-28T23:53:43.348Z,92.46
2022-09-28T23:58:46.029Z,92.56
